Time;durP1;ratioP1;P1;durP2;ratioP2;P2;SDS_P1;SDS_P2;PMS_P1;PMS_P2;Temp;Humidity;BMP_temperature;BMP_pressure;BME280_temperature;BME280_humidity;BME280_pressure;Samples;Min_cycle;Max_cycle;Signal;HPM_P1;HPM_P2
2023/09/05 00:00:23;;;;;;;1.80;1.70;;;27.70;64.40;;;;;;10451976;28;20044;-32
2023/09/05 00:05:27;;;;;;;2.85;2.08;;;27.60;64.50;;;;;;10443136;28;20063;-31
2023/09/05 00:10:28;;;;;;;2.28;1.55;;;27.60;64.50;;;;;;10452949;28;20433;-40
2023/09/05 00:15:30;;;;;;;2.65;1.63;;;27.60;64.50;;;;;;10450218;28;20091;-32
2023/09/05 00:20:33;;;;;;;1.88;1.70;;;27.60;64.60;;;;;;10443092;28;20049;-32
2023/09/05 00:25:35;;;;;;;2.40;1.70;;;27.60;64.50;;;;;;10443004;28;20508;-34
2023/09/05 00:30:37;;;;;;;2.90;1.65;;;27.50;64.60;;;;;;10439889;28;20075;-31
2023/09/05 00:35:40;;;;;;;3.08;1.38;;;27.50;64.60;;;;;;10455172;28;20156;-35
2023/09/05 00:40:43;;;;;;;1.77;1.40;;;27.40;64.60;;;;;;10438979;28;20438;-35
2023/09/05 00:45:49;;;;;;;1.85;1.55;;;27.40;65.30;;;;;;10445627;28;20099;-35
2023/09/05 00:50:52;;;;;;;1.45;1.20;;;27.40;64.70;;;;;;10449259;28;20044;-34
2023/09/05 00:55:54;;;;;;;2.65;1.52;;;27.40;64.80;;;;;;10437692;28;20048;-40
2023/09/05 01:00:57;;;;;;;2.03;1.50;;;27.40;64.80;;;;;;10440719;28;20051;-38
2023/09/05 01:06:07;;;;;;;1.83;1.40;;;27.30;64.80;;;;;;10435040;28;20041;-33
2023/09/05 01:11:09;;;;;;;2.13;1.50;;;27.30;64.90;;;;;;10433360;28;20088;-32
2023/09/05 01:16:11;;;;;;;5.55;1.40;;;27.30;64.90;;;;;;10443691;28;20049;-33
2023/09/05 01:21:24;;;;;;;2.38;1.52;;;27.30;65.00;;;;;;10445594;28;20095;-34
2023/09/05 01:26:28;;;;;;;1.50;1.27;;;27.20;64.90;;;;;;10445032;28;20106;-32
2023/09/05 01:31:31;;;;;;;2.00;1.45;;;27.20;64.90;;;;;;10431732;28;20127;-34
2023/09/05 01:36:32;;;;;;;1.65;1.55;;;27.20;65.00;;;;;;10446079;28;20134;-32
2023/09/05 01:41:36;;;;;;;2.92;1.70;;;27.20;65.00;;;;;;10445661;28;20143;-34
2023/09/05 01:46:38;;;;;;;2.00;1.50;;;27.20;65.60;;;;;;10446537;28;20820;-31
2023/09/05 01:51:40;;;;;;;2.05;1.42;;;27.10;65.10;;;;;;10444416;28;20055;-35
2023/09/05 01:56:43;;;;;;;1.30;1.10;;;27.10;65.10;;;;;;10442565;28;20454;-32
2023/09/05 02:01:45;;;;;;;1.90;1.60;;;27.10;65.20;;;;;;10435195;28;20398;-36
2023/09/05 02:06:47;;;;;;;1.42;1.33;;;27.10;65.20;;;;;;10447265;28;20110;-34
2023/09/05 02:11:50;;;;;;;3.72;1.58;;;27.00;65.30;;;;;;10435579;28;20080;-32
2023/09/05 02:16:52;;;;;;;3.47;1.55;;;27.00;65.30;;;;;;10434587;28;20092;-33
2023/09/05 02:21:54;;;;;;;2.53;1.30;;;27.00;65.30;;;;;;10430998;28;20071;-33
2023/09/05 02:26:57;;;;;;;1.77;1.30;;;27.00;65.90;;;;;;10426246;28;20060;-31
2023/09/05 02:31:59;;;;;;;1.67;1.52;;;27.00;65.30;;;;;;10430766;28;20049;-33
2023/09/05 02:37:00;;;;;;;1.90;1.50;;;26.90;65.30;;;;;;10419058;28;20045;-31
2023/09/05 02:42:05;;;;;;;1.45;1.35;;;26.90;65.40;;;;;;10410734;28;20041;-31
2023/09/05 02:47:07;;;;;;;2.47;1.42;;;26.90;65.40;;;;;;10434658;28;20036;-31
2023/09/05 02:52:09;;;;;;;2.53;1.25;;;26.90;65.40;;;;;;10414407;28;20128;-30
2023/09/05 02:57:12;;;;;;;2.05;1.40;;;26.90;65.60;;;;;;10442445;28;20076;-31
2023/09/05 03:02:14;;;;;;;3.83;1.60;;;26.80;65.50;;;;;;10446995;28;20123;-30
2023/09/05 03:07:15;;;;;;;2.10;1.67;;;26.80;65.40;;;;;;10440596;28;20131;-31
2023/09/05 03:12:19;;;;;;;1.30;1.20;;;26.80;65.60;;;;;;10436710;28;20126;-29
2023/09/05 03:17:22;;;;;;;1.98;1.40;;;26.70;65.50;;;;;;10426741;28;20053;-31
2023/09/05 03:22:23;;;;;;;1.42;1.27;;;26.70;65.60;;;;;;10441683;28;20136;-30
2023/09/05 03:27:27;;;;;;;2.45;1.60;;;26.70;65.60;;;;;;10433279;28;20069;-31
2023/09/05 03:32:29;;;;;;;2.17;1.35;;;26.70;65.50;;;;;;10416401;28;20486;-40
2023/09/05 03:37:30;;;;;;;1.70;1.30;;;26.70;65.60;;;;;;10435825;28;20045;-33
2023/09/05 03:42:33;;;;;;;1.63;1.50;;;26.70;65.70;;;;;;10414991;28;20134;-35
2023/09/05 03:47:35;;;;;;;1.83;1.45;;;26.70;65.60;;;;;;10418683;28;20132;-34
2023/09/05 03:52:37;;;;;;;2.17;1.48;;;26.60;65.60;;;;;;10425443;28;20383;-30
2023/09/05 03:57:40;;;;;;;1.30;1.13;;;26.60;65.70;;;;;;10422603;28;20136;-31
2023/09/05 04:02:42;;;;;;;2.78;1.30;;;26.60;65.60;;;;;;10429391;28;20041;-32
2023/09/05 04:07:44;;;;;;;2.38;1.60;;;26.60;65.60;;;;;;10424411;28;20073;-40
2023/09/05 04:12:47;;;;;;;1.83;1.42;;;26.60;65.60;;;;;;10418797;28;20136;-31
2023/09/05 04:17:51;;;;;;;3.78;1.38;;;26.60;65.60;;;;;;10431232;28;20061;-28
2023/09/05 04:22:53;;;;;;;2.50;1.48;;;26.60;65.60;;;;;;10421294;28;20402;-30
2023/09/05 04:27:56;;;;;;;1.60;1.48;;;26.50;65.60;;;;;;10432715;28;20386;-32
2023/09/05 04:32:58;;;;;;;4.57;2.30;;;26.50;65.70;;;;;;10441081;28;20139;-31
2023/09/05 04:38:00;;;;;;;2.45;1.52;;;26.50;65.60;;;;;;10440091;28;20045;-31
2023/09/05 04:43:03;;;;;;;1.60;1.40;;;26.40;65.60;;;;;;10450863;28;20056;-33
2023/09/05 04:48:06;;;;;;;2.05;1.83;;;26.40;65.70;;;;;;10439614;28;20449;-40
2023/09/05 04:53:07;;;;;;;3.83;1.48;;;26.40;65.70;;;;;;10443948;28;20559;-33
2023/09/05 04:58:12;;;;;;;2.53;1.75;;;26.40;65.70;;;;;;10427935;28;20601;-31
2023/09/05 05:03:13;;;;;;;1.83;1.58;;;26.40;65.60;;;;;;10427801;28;20120;-33
2023/09/05 05:08:15;;;;;;;1.75;1.25;;;26.40;65.60;;;;;;10442407;28;20727;-34
2023/09/05 05:13:19;;;;;;;3.72;2.03;;;26.40;65.50;;;;;;10433358;28;20068;-36
2023/09/05 05:18:21;;;;;;;3.88;1.70;;;26.30;65.50;;;;;;10437853;28;20091;-31
2023/09/05 05:23:23;;;;;;;3.58;1.63;;;26.30;65.50;;;;;;10438152;28;20136;-32
2023/09/05 05:28:26;;;;;;;7.05;1.77;;;26.30;65.40;;;;;;10431162;28;20513;-32
2023/09/05 05:33:28;;;;;;;3.63;2.03;;;26.30;65.50;;;;;;10435367;28;20049;-38
2023/09/05 05:38:31;;;;;;;6.22;2.08;;;26.30;65.50;;;;;;10442290;28;20047;-37
2023/09/05 05:43:34;;;;;;;6.82;2.00;;;26.30;65.50;;;;;;10428270;28;20068;-33
2023/09/05 05:48:36;;;;;;;2.75;1.83;;;26.30;65.30;;;;;;10437437;28;20103;-37
2023/09/05 05:53:37;;;;;;;4.07;1.92;;;26.30;65.20;;;;;;10430925;28;20458;-33
2023/09/05 05:58:41;;;;;;;4.43;1.98;;;26.20;65.10;;;;;;10429306;28;20072;-35
2023/09/05 06:03:43;;;;;;;3.85;1.80;;;26.30;65.10;;;;;;10433536;28;20045;-33
2023/09/05 06:08:45;;;;;;;7.00;1.88;;;26.20;64.90;;;;;;10426072;28;20059;-32
2023/09/05 06:13:51;;;;;;;3.65;1.90;;;26.30;64.90;;;;;;10443968;28;20076;-33
2023/09/05 06:18:53;;;;;;;4.32;2.20;;;26.30;64.70;;;;;;10446498;28;20052;-34
2023/09/05 06:23:55;;;;;;;4.85;1.98;;;26.30;64.60;;;;;;10437924;28;20124;-34
2023/09/05 06:28:58;;;;;;;3.80;1.80;;;26.30;64.50;;;;;;10437149;28;20442;-35
2023/09/05 06:34:00;;;;;;;7.07;2.10;;;26.30;64.50;;;;;;10438115;28;20140;-35
2023/09/05 06:39:04;;;;;;;2.75;1.60;;;26.30;64.30;;;;;;10438972;28;20696;-35
2023/09/05 06:44:07;;;;;;;2.28;1.77;;;26.30;64.20;;;;;;10442191;28;20059;-37
2023/09/05 06:49:09;;;;;;;2.90;1.63;;;26.40;64.20;;;;;;10440957;28;20131;-38
2023/09/05 06:54:10;;;;;;;3.38;1.65;;;26.30;64.20;;;;;;10443377;28;20050;-34
2023/09/05 06:59:17;;;;;;;5.72;2.70;;;26.40;64.00;;;;;;10441104;28;20107;-33
2023/09/05 07:04:19;;;;;;;3.67;2.00;;;26.40;63.90;;;;;;10439620;28;20044;-32
2023/09/05 07:09:21;;;;;;;5.07;2.10;;;26.40;63.80;;;;;;10433248;28;20316;-33
2023/09/05 07:14:27;;;;;;;7.65;2.10;;;26.40;63.80;;;;;;10430673;28;20128;-38
2023/09/05 07:19:30;;;;;;;4.68;1.65;;;26.50;63.80;;;;;;10432247;28;20141;-40
2023/09/05 07:24:32;;;;;;;2.80;1.80;;;26.40;64.30;;;;;;10444747;28;20041;-33
2023/09/05 07:29:35;;;;;;;5.90;1.90;;;26.50;63.60;;;;;;10441087;28;20396;-31
2023/09/05 07:34:37;;;;;;;3.92;2.05;;;26.50;63.50;;;;;;10427108;28;20050;-32
2023/09/05 07:39:39;;;;;;;2.33;1.80;;;26.50;63.30;;;;;;10432402;28;20156;-35
2023/09/05 07:44:42;;;;;;;4.65;1.80;;;26.50;63.30;;;;;;10440083;28;20045;-32
2023/09/05 07:49:44;;;;;;;2.58;1.77;;;26.50;63.30;;;;;;10441885;28;20049;-38
2023/09/05 07:54:46;;;;;;;7.55;1.73;;;26.60;63.20;;;;;;10442730;28;20111;-31
2023/09/05 07:59:50;;;;;;;6.97;2.38;;;26.60;63.10;;;;;;10432603;28;20073;-39
2023/09/05 08:04:51;;;;;;;2.97;1.90;;;26.60;63.00;;;;;;10444118;28;20637;-34
2023/09/05 08:09:53;;;;;;;3.15;1.70;;;26.60;63.20;;;;;;10443955;28;20494;-37
2023/09/05 08:14:57;;;;;;;3.00;2.22;;;26.60;63.20;;;;;;10449194;28;20064;-34
2023/09/05 08:19:59;;;;;;;2.60;1.60;;;26.60;63.30;;;;;;10451764;28;20521;-31
2023/09/05 08:25:01;;;;;;;2.08;1.60;;;26.70;63.30;;;;;;10451459;28;20084;-41
2023/09/05 08:30:05;;;;;;;2.55;1.80;;;26.70;63.30;;;;;;10443591;28;20483;-31
2023/09/05 08:35:09;;;;;;;3.80;1.50;;;26.80;63.20;;;;;;10443188;28;20048;-33
2023/09/05 08:40:11;;;;;;;3.15;1.60;;;26.70;63.10;;;;;;10446531;28;20088;-33
2023/09/05 08:45:20;;;;;;;3.15;1.67;;;26.80;63.10;;;;;;10445232;28;20048;-38
2023/09/05 08:50:25;;;;;;;2.33;1.73;;;26.80;63.00;;;;;;10441478;28;20110;-32
2023/09/05 08:55:29;;;;;;;2.97;2.10;;;26.90;62.90;;;;;;10436406;28;20441;-32
2023/09/05 09:00:32;;;;;;;5.95;1.83;;;26.90;62.80;;;;;;10447220;28;20386;-30
2023/09/05 09:05:35;;;;;;;2.15;1.65;;;26.90;62.80;;;;;;10446582;28;20052;-30
2023/09/05 09:10:36;;;;;;;4.80;1.80;;;27.00;62.80;;;;;;10443039;28;20045;-32
2023/09/05 09:15:43;;;;;;;2.20;1.85;;;27.00;62.80;;;;;;10441615;28;20084;-31
2023/09/05 09:20:45;;;;;;;3.67;1.90;;;27.00;62.60;;;;;;10428965;28;20053;-33
2023/09/05 09:25:48;;;;;;;3.38;1.83;;;27.00;62.50;;;;;;10436648;28;20132;-33
2023/09/05 09:30:58;;;;;;;3.05;1.77;;;27.10;62.60;;;;;;10430956;28;20044;-31
2023/09/05 09:36:04;;;;;;;4.68;1.67;;;27.20;62.60;;;;;;10432234;28;20045;-33
2023/09/05 09:41:07;;;;;;;2.55;1.60;;;27.10;62.50;;;;;;10434120;28;20489;-35
2023/09/05 09:46:10;;;;;;;2.35;1.35;;;27.20;62.50;;;;;;10423876;28;20088;-36
2023/09/05 09:51:13;;;;;;;3.47;1.63;;;27.70;61.60;;;;;;10429481;28;20476;-34
2023/09/05 09:56:18;;;;;;;4.63;2.88;;;27.60;61.70;;;;;;10433532;28;20043;-32
2023/09/05 10:01:22;;;;;;;2.00;1.63;;;27.30;62.40;;;;;;10438203;28;20180;-32
2023/09/05 10:06:25;;;;;;;4.88;1.92;;;27.70;61.80;;;;;;10443087;28;20510;-31
2023/09/05 10:11:28;;;;;;;1.90;1.20;;;27.90;61.50;;;;;;10444572;28;20040;-34
2023/09/05 10:16:32;;;;;;;3.20;1.58;;;27.70;62.20;;;;;;10424054;28;20460;-36
2023/09/05 10:21:35;;;;;;;4.63;1.70;;;28.00;61.30;;;;;;10427317;28;20057;-36
2023/09/05 10:26:38;;;;;;;2.85;1.58;;;28.10;60.80;;;;;;10420892;28;20513;-36
2023/09/05 10:31:41;;;;;;;3.45;1.83;;;28.30;60.60;;;;;;10429397;28;20045;-38
2023/09/05 10:36:46;;;;;;;2.17;1.80;;;28.30;60.70;;;;;;10435035;28;20053;-34
2023/09/05 10:41:48;;;;;;;1.75;1.40;;;28.50;60.40;;;;;;10430516;28;20514;-31
2023/09/05 10:46:53;;;;;;;4.25;2.58;;;28.20;61.80;;;;;;10422384;28;20042;-32
2023/09/05 10:52:17;;;;;;;9.55;1.98;;;27.60;65.00;;;;;;10453054;28;20055;-31
2023/09/05 10:57:38;;;;;;;3.65;2.05;;;27.40;65.00;;;;;;10441687;28;20061;-31
2023/09/05 11:02:41;;;;;;;3.40;2.05;;;27.80;63.20;;;;;;10441349;28;20045;-31
2023/09/05 11:07:43;;;;;;;5.78;2.30;;;27.80;63.60;;;;;;10449323;28;20098;-36
2023/09/05 11:12:45;;;;;;;2.58;1.60;;;27.60;64.50;;;;;;10441421;28;20163;-33
2023/09/05 11:18:00;;;;;;;6.80;2.00;;;28.20;62.10;;;;;;10453768;28;20492;-31
2023/09/05 11:23:11;;;;;;;2.10;1.48;;;28.20;62.00;;;;;;10446446;28;20213;-37
2023/09/05 11:28:13;;;;;;;6.85;1.95;;;28.40;60.90;;;;;;10438367;28;20049;-35
2023/09/05 11:33:17;;;;;;;2.53;1.60;;;28.80;59.60;;;;;;10441221;28;20049;-36
2023/09/05 11:38:21;;;;;;;3.25;1.63;;;28.40;60.40;;;;;;10439527;28;20045;-41
2023/09/05 11:43:23;;;;;;;5.40;1.80;;;28.80;60.70;;;;;;10448914;28;20087;-36
2023/09/05 11:48:30;;;;;;;3.20;1.67;;;29.00;60.90;;;;;;10436797;28;20132;-34
2023/09/05 11:53:33;;;;;;;4.38;2.25;;;29.40;60.00;;;;;;10449354;28;20045;-32
2023/09/05 11:58:37;;;;;;;3.22;1.77;;;29.60;59.50;;;;;;10442261;28;20045;-32
2023/09/05 12:03:42;;;;;;;4.15;2.20;;;29.80;59.80;;;;;;10438453;28;20048;-31
2023/09/05 12:08:43;;;;;;;2.65;1.63;;;29.90;59.30;;;;;;10428650;28;20045;-32
2023/09/05 12:13:45;;;;;;;4.13;1.77;;;30.20;58.50;;;;;;10443086;28;20648;-33
2023/09/05 12:18:49;;;;;;;6.75;1.85;;;30.80;57.60;;;;;;10441556;28;20541;-27
2023/09/05 12:23:51;;;;;;;6.40;1.75;;;30.80;59.40;;;;;;10448579;28;20119;-36
2023/09/05 12:28:58;;;;;;;8.57;2.20;;;30.80;57.00;;;;;;10452279;28;20068;-37
2023/09/05 12:34:01;;;;;;;4.35;2.13;;;31.40;57.00;;;;;;10440835;28;20049;-32
2023/09/05 12:39:03;;;;;;;5.32;1.85;;;31.90;55.90;;;;;;10450923;28;20142;-34
2023/09/05 12:44:06;;;;;;;6.38;1.92;;;32.10;56.00;;;;;;10452364;28;20053;-35
2023/09/05 12:49:10;;;;;;;1.15;1.05;;;32.20;55.50;;;;;;10450364;28;20045;-38
2023/09/05 12:54:13;;;;;;;3.67;1.92;;;32.50;54.20;;;;;;10452086;28;20053;-31
2023/09/05 12:59:16;;;;;;;5.90;1.85;;;32.90;54.70;;;;;;10458237;28;20410;-37
2023/09/05 13:04:19;;;;;;;5.07;1.85;;;33.20;54.40;;;;;;10449796;28;20045;-40
2023/09/05 13:09:21;;;;;;;3.63;1.67;;;33.40;53.20;;;;;;10440763;28;20154;-32
2023/09/05 13:14:23;;;;;;;3.25;1.70;;;32.50;53.40;;;;;;10460258;28;20140;-36
2023/09/05 13:19:26;;;;;;;2.72;1.85;;;32.70;52.40;;;;;;10457581;28;20091;-34
2023/09/05 13:24:29;;;;;;;4.32;1.60;;;33.90;51.70;;;;;;10464776;28;20083;-40
2023/09/05 13:29:31;;;;;;;4.43;1.67;;;33.90;50.60;;;;;;10434709;28;20083;-32
2023/09/05 13:34:34;;;;;;;5.93;1.85;;;35.00;50.40;;;;;;10440366;28;20442;-33
2023/09/05 13:39:36;;;;;;;4.25;1.33;;;35.00;50.20;;;;;;10429389;28;20509;-34
2023/09/05 13:44:38;;;;;;;2.05;1.30;;;33.90;51.80;;;;;;10433344;28;20045;-36
2023/09/05 13:49:41;;;;;;;2.63;1.45;;;34.20;51.10;;;;;;10424237;28;20037;-30
2023/09/05 13:54:44;;;;;;;2.65;1.45;;;34.30;50.10;;;;;;10452922;28;20135;-35
2023/09/05 13:59:46;;;;;;;5.43;1.27;;;34.70;48.90;;;;;;10446189;28;20049;-33
2023/09/05 14:04:49;;;;;;;6.93;1.60;;;35.80;48.50;;;;;;10445800;28;20528;-36
2023/09/05 14:09:51;;;;;;;2.67;0.93;;;35.10;48.90;;;;;;10432991;28;20520;-34
2023/09/05 14:14:53;;;;;;;3.08;1.48;;;33.90;51.40;;;;;;10443999;28;20139;-34
2023/09/05 14:19:56;;;;;;;3.20;1.40;;;35.00;50.10;;;;;;10441452;28;20056;-32
2023/09/05 14:24:58;;;;;;;1.42;1.17;;;36.50;46.40;;;;;;10433192;28;20073;-34
2023/09/05 14:29:59;;;;;;;2.08;1.77;;;37.50;45.60;;;;;;10439689;28;20051;-36
2023/09/05 14:35:03;;;;;;;1.40;1.30;;;38.20;45.10;;;;;;10437632;28;20476;-33
2023/09/05 14:40:05;;;;;;;5.82;1.48;;;37.40;46.70;;;;;;10431958;28;20092;-35
2023/09/05 14:45:08;;;;;;;3.20;1.55;;;39.20;44.90;;;;;;10447530;28;20087;-37
2023/09/05 14:50:12;;;;;;;5.38;1.52;;;40.10;44.60;;;;;;10440352;28;20076;-33
2023/09/05 14:55:13;;;;;;;3.72;1.75;;;40.80;43.50;;;;;;10444850;28;20092;-37
2023/09/05 15:00:16;;;;;;;4.65;1.90;;;39.40;45.00;;;;;;10423814;28;20130;-38
2023/09/05 15:05:19;;;;;;;4.15;1.77;;;37.60;47.90;;;;;;10424967;28;20046;-37
2023/09/05 15:10:21;;;;;;;1.30;1.20;;;40.20;44.20;;;;;;10437646;28;20041;-38
2023/09/05 15:15:23;;;;;;;3.63;1.63;;;40.50;44.10;;;;;;10433923;28;20076;-33
2023/09/05 15:20:26;;;;;;;7.57;3.63;;;40.90;42.40;;;;;;10435334;28;20049;-31
2023/09/05 15:25:28;;;;;;;10.13;3.83;;;41.20;42.90;;;;;;10445763;28;20072;-39
2023/09/05 15:30:31;;;;;;;5.85;2.15;;;42.00;41.80;;;;;;10428994;28;20124;-38
2023/09/05 15:35:34;;;;;;;6.63;3.58;;;42.30;41.20;;;;;;10434982;28;20130;-32
2023/09/05 15:40:36;;;;;;;5.88;2.53;;;42.90;41.00;;;;;;10426457;28;20492;-36
2023/09/05 15:45:48;;;;;;;3.13;1.70;;;42.60;40.70;;;;;;10431932;28;20045;-38
2023/09/05 15:50:55;;;;;;;3.22;2.65;;;42.10;41.80;;;;;;10437977;28;20059;-34
2023/09/05 15:55:57;;;;;;;2.75;2.08;;;42.90;41.50;;;;;;10431800;28;20138;-39
2023/09/05 16:00:59;;;;;;;6.22;1.95;;;42.60;42.00;;;;;;10437073;28;20598;-39
2023/09/05 16:06:02;;;;;;;2.90;1.60;;;41.80;42.90;;;;;;10439397;28;20116;-35
2023/09/05 16:11:08;;;;;;;4.53;1.65;;;43.50;42.00;;;;;;10432793;28;20073;-33
2023/09/05 16:16:12;;;;;;;4.80;1.90;;;43.70;42.80;;;;;;10441880;28;20391;-37
2023/09/05 16:21:15;;;;;;;5.85;1.38;;;43.50;41.80;;;;;;10443225;28;20440;-32
2023/09/05 16:26:51;;;;;;;1.83;1.35;;;42.40;43.30;;;;;;10547008;27;20161;-31
2023/09/05 16:31:54;;;;;;;6.97;1.95;;;41.80;43.80;;;;;;10564983;28;20071;-34
2023/09/05 16:36:56;;;;;;;2.60;1.20;;;43.90;42.80;;;;;;10563209;28;20097;-35
2023/09/05 16:42:00;;;;;;;1.50;1.27;;;43.30;43.10;;;;;;10558043;28;21033;-34
2023/09/05 16:47:02;;;;;;;4.50;1.55;;;43.20;43.20;;;;;;10552017;28;20518;-33
2023/09/05 16:52:04;;;;;;;4.25;1.27;;;43.50;41.10;;;;;;10545655;28;20097;-33
2023/09/05 16:57:07;;;;;;;5.78;1.30;;;43.80;41.20;;;;;;10554122;28;20075;-32
2023/09/05 17:02:09;;;;;;;3.83;1.33;;;42.10;45.70;;;;;;10539697;28;20075;-36
2023/09/05 17:07:15;;;;;;;3.15;1.50;;;42.10;43.70;;;;;;10541293;28;20142;-34
2023/09/05 17:12:18;;;;;;;3.55;1.50;;;43.50;43.50;;;;;;10551476;28;20048;-31
2023/09/05 17:17:20;;;;;;;2.75;1.45;;;42.80;45.10;;;;;;10566283;28;20113;-34
2023/09/05 17:22:22;;;;;;;1.33;1.00;;;44.10;44.00;;;;;;10558500;28;20555;-32
2023/09/05 17:27:25;;;;;;;1.80;1.40;;;44.00;45.60;;;;;;10551905;28;20071;-31
2023/09/05 17:32:26;;;;;;;4.82;1.98;;;43.50;46.10;;;;;;10551354;28;20474;-33
2023/09/05 17:37:28;;;;;;;2.17;1.20;;;42.70;46.10;;;;;;10528829;28;20131;-40
2023/09/05 17:42:32;;;;;;;1.73;1.20;;;41.40;48.70;;;;;;10528757;28;20201;-31
2023/09/05 17:47:34;;;;;;;3.92;1.00;;;41.00;47.70;;;;;;10512182;28;20536;-37
2023/09/05 17:52:36;;;;;;;1.20;0.90;;;40.40;50.70;;;;;;10520272;28;20515;-31
2023/09/05 17:57:39;;;;;;;1.00;0.80;;;39.30;54.80;;;;;;10529531;28;20072;-37
2023/09/05 18:02:41;;;;;;;2.95;1.10;;;38.20;53.00;;;;;;10527152;28;20047;-33
2023/09/05 18:07:43;;;;;;;2.00;1.20;;;37.50;57.70;;;;;;10518708;28;20131;-37
2023/09/05 18:12:46;;;;;;;0.82;0.77;;;37.50;55.50;;;;;;10525942;28;20191;-34
2023/09/05 18:17:48;;;;;;;2.00;1.17;;;37.30;57.10;;;;;;10531116;28;20101;-37
2023/09/05 18:22:51;;;;;;;2.40;0.73;;;37.30;56.80;;;;;;10532227;28;20397;-39
2023/09/05 18:27:55;;;;;;;1.05;0.80;;;36.80;55.80;;;;;;10529206;28;20056;-33
2023/09/05 18:32:57;;;;;;;2.33;1.77;;;36.20;56.40;;;;;;10507376;27;20040;-33
2023/09/05 18:37:59;;;;;;;1.02;0.98;;;36.10;58.10;;;;;;10526261;28;20560;-37
2023/09/05 18:43:02;;;;;;;1.40;0.85;;;36.00;57.90;;;;;;10523034;28;20058;-36
2023/09/05 18:48:05;;;;;;;1.23;1.00;;;35.90;57.80;;;;;;10523002;28;20078;-37
2023/09/05 18:53:07;;;;;;;1.00;0.80;;;35.40;58.20;;;;;;10528359;28;20058;-39
2023/09/05 18:58:11;;;;;;;1.70;1.30;;;35.10;58.10;;;;;;10527861;28;20126;-32
2023/09/05 19:03:13;;;;;;;1.85;1.10;;;34.90;58.30;;;;;;10529195;28;20087;-38
2023/09/05 19:08:15;;;;;;;2.50;1.08;;;34.60;58.40;;;;;;10525948;28;20449;-43
2023/09/05 19:13:18;;;;;;;1.88;1.20;;;34.70;58.60;;;;;;10517575;28;20051;-39
2023/09/05 19:18:21;;;;;;;2.97;1.48;;;34.50;59.00;;;;;;10519350;28;20722;-35
2023/09/05 19:23:24;;;;;;;1.60;1.10;;;34.30;59.20;;;;;;10515251;28;20146;-35
2023/09/05 19:28:27;;;;;;;3.30;1.35;;;34.20;59.50;;;;;;10520958;28;20063;-35
2023/09/05 19:33:29;;;;;;;2.13;1.45;;;34.20;59.60;;;;;;10519062;28;20055;-36
2023/09/05 19:38:31;;;;;;;3.50;1.50;;;34.00;60.30;;;;;;10521908;28;20106;-34
2023/09/05 19:43:36;;;;;;;1.70;1.27;;;34.00;60.70;;;;;;10525769;28;20140;-33
2023/09/05 19:48:41;;;;;;;2.03;1.40;;;33.80;60.30;;;;;;10532406;28;20050;-36
2023/09/05 19:53:42;;;;;;;3.58;1.38;;;33.60;60.20;;;;;;10527889;28;20043;-35
2023/09/05 19:58:46;;;;;;;4.97;1.65;;;33.50;60.40;;;;;;10522042;28;20512;-31
2023/09/05 20:03:47;;;;;;;3.65;1.38;;;33.40;60.50;;;;;;10514316;28;20054;-36
2023/09/05 20:08:49;;;;;;;5.38;2.00;;;33.30;60.60;;;;;;10523779;28;20055;-31
2023/09/05 20:13:53;;;;;;;2.38;1.50;;;33.10;60.80;;;;;;10518846;28;20040;-34
2023/09/05 20:18:55;;;;;;;3.38;1.60;;;33.10;61.00;;;;;;10508944;28;20125;-33
2023/09/05 20:23:57;;;;;;;5.97;1.50;;;32.90;61.10;;;;;;10516208;28;20135;-32
2023/09/05 20:29:00;;;;;;;3.83;1.80;;;32.90;61.20;;;;;;10514960;28;20070;-36
2023/09/05 20:34:01;;;;;;;2.00;1.50;;;32.80;61.40;;;;;;10507082;28;20056;-38
2023/09/05 20:39:04;;;;;;;3.58;1.50;;;32.70;61.50;;;;;;10510969;28;20158;-34
2023/09/05 20:44:08;;;;;;;6.53;1.88;;;32.60;61.50;;;;;;10512391;28;20044;-33
2023/09/05 20:49:10;;;;;;;4.82;1.60;;;32.50;61.70;;;;;;10508243;28;20412;-33
2023/09/05 20:54:11;;;;;;;3.25;1.65;;;32.40;61.60;;;;;;10519506;28;20048;-32
2023/09/05 20:59:15;;;;;;;3.55;1.88;;;32.30;61.70;;;;;;10527218;28;20044;-33
2023/09/05 21:04:16;;;;;;;5.10;2.00;;;32.20;61.80;;;;;;10522535;28;20087;-32
2023/09/05 21:09:18;;;;;;;2.95;1.73;;;32.10;62.00;;;;;;10510532;28;20131;-33
2023/09/05 21:14:23;;;;;;;4.53;1.60;;;32.00;62.20;;;;;;10503937;28;20040;-32
2023/09/05 21:19:25;;;;;;;3.45;1.95;;;31.90;62.30;;;;;;10510695;28;20045;-38
2023/09/05 21:24:27;;;;;;;6.20;1.70;;;31.80;62.30;;;;;;10521762;28;20143;-32
2023/09/05 21:29:30;;;;;;;6.57;1.75;;;31.80;62.40;;;;;;10526742;28;20076;-35
2023/09/05 21:34:32;;;;;;;5.82;1.88;;;31.70;62.30;;;;;;10510490;28;20127;-33
2023/09/05 21:39:35;;;;;;;4.00;2.03;;;31.60;62.50;;;;;;10508893;28;20493;-38
2023/09/05 21:44:38;;;;;;;1.85;1.48;;;31.50;62.30;;;;;;10502874;28;20058;-32
2023/09/05 21:49:40;;;;;;;2.63;1.70;;;31.50;62.50;;;;;;10507939;28;20671;-33
2023/09/05 21:54:43;;;;;;;3.10;1.70;;;31.50;62.60;;;;;;10515007;28;20054;-41
2023/09/05 21:59:46;;;;;;;9.27;1.92;;;31.40;62.60;;;;;;10511621;28;20119;-33
2023/09/05 22:04:49;;;;;;;3.00;1.80;;;31.30;62.60;;;;;;10511983;28;20082;-36
2023/09/05 22:09:51;;;;;;;2.22;1.35;;;31.30;62.80;;;;;;10511939;28;20036;-37
2023/09/05 22:14:55;;;;;;;6.43;1.90;;;31.20;62.70;;;;;;10516755;28;20523;-34
2023/09/05 22:19:56;;;;;;;3.08;1.83;;;31.20;62.70;;;;;;10507000;28;20048;-36
2023/09/05 22:24:58;;;;;;;3.05;1.80;;;31.10;62.80;;;;;;10521687;28;20053;-35
2023/09/05 22:30:05;;;;;;;2.47;1.52;;;31.10;62.90;;;;;;10522426;28;20127;-36
2023/09/05 22:35:09;;;;;;;6.85;2.75;;;31.00;62.90;;;;;;10527391;28;20055;-35
2023/09/05 22:40:16;;;;;;;2.45;1.83;;;31.00;62.90;;;;;;10527706;28;20542;-34
2023/09/05 22:45:19;;;;;;;4.65;1.45;;;30.90;63.00;;;;;;10523320;28;20054;-32
2023/09/05 22:50:22;;;;;;;2.78;1.50;;;30.80;63.10;;;;;;10528612;28;20512;-34
2023/09/05 22:55:24;;;;;;;3.60;1.70;;;30.80;63.10;;;;;;10526804;28;20048;-33
2023/09/05 23:00:27;;;;;;;4.00;1.70;;;30.70;63.10;;;;;;10527931;28;20051;-32
2023/09/05 23:05:29;;;;;;;3.80;1.60;;;30.70;63.10;;;;;;10529389;28;20060;-32
2023/09/05 23:10:31;;;;;;;2.22;1.70;;;30.70;63.20;;;;;;10524235;28;20052;-35
2023/09/05 23:15:34;;;;;;;4.75;1.73;;;30.70;63.20;;;;;;10531427;28;20427;-36
2023/09/05 23:20:39;;;;;;;1.90;1.50;;;30.50;63.20;;;;;;10530665;28;20122;-35
2023/09/05 23:25:41;;;;;;;2.38;1.58;;;30.50;63.20;;;;;;10535263;28;20150;-32
2023/09/05 23:30:46;;;;;;;2.40;1.73;;;30.50;63.20;;;;;;10533954;28;20535;-39
2023/09/05 23:35:52;;;;;;;3.15;1.90;;;30.40;63.10;;;;;;10528450;28;20483;-40
2023/09/05 23:40:53;;;;;;;2.92;1.80;;;30.40;63.10;;;;;;10527428;28;20048;-33
2023/09/05 23:45:57;;;;;;;4.35;1.88;;;30.30;63.10;;;;;;10529111;28;20072;-32
2023/09/05 23:50:59;;;;;;;2.38;1.60;;;30.30;63.20;;;;;;10521419;28;20066;-42
2023/09/05 23:56:01;;;;;;;1.70;1.60;;;30.20;63.00;;;;;;10515279;28;20054;-36
